CDT,Max TemperatureF,Mean TemperatureF,Min TemperatureF,Max Dew PointF,MeanDew PointF,Min DewpointF,Max Humidity, Mean Humidity, Min Humidity, Max Sea Level PressureIn, Mean Sea Level PressureIn, Min Sea Level PressureIn, Max VisibilityMiles, Mean VisibilityMiles, Min VisibilityMiles, Max Wind SpeedMPH, Mean Wind SpeedMPH, Max Gust SpeedMPH,PrecipitationIn, CloudCover, Events, WindDirDegrees
2013-7-1,83,68,53,56,51,46,91,56,27,30.18,30.14,30.09,10,10,10,9,5,,0.00,2,,32
2013-7-2,78,66,55,54,46,36,76,50,23,30.18,30.14,30.10,10,10,7,10,5,17,0.00,1,,56
2013-7-3,73,65,57,63,56,52,90,69,53,30.13,30.08,30.03,10,10,5,8,2,,0.00,7,Rain,61
2013-7-4,84,72,60,63,59,55,94,66,37,30.08,30.03,30.00,10,8,2,9,2,,0.00,3,,194
2013-7-5,87,73,59,65,59,53,94,62,31,30.05,30.01,29.96,10,9,2,16,3,20,0.00,1,,193
2013-7-6,90,76,62,65,62,57,92,63,33,30.02,29.99,29.94,10,10,5,12,4,16,0.00,0,,182
2013-7-7,91,79,67,70,67,64,90,71,46,29.97,29.93,29.89,10,9,5,10,3,,0.00,1,Rain,199
2013-7-8,86,78,71,72,70,66,93,77,53,30.00,29.94,29.87,10,9,2,10,4,17,0.62,4,Rain,157
2013-7-9,83,74,65,73,69,64,94,80,62,30.01,29.90,29.77,10,7,0,15,4,20,0.05,3,Fog-Rain,186
2013-7-10,79,70,59,68,58,51,90,62,38,30.04,29.93,29.81,10,10,7,16,6,22,0.00,2,,310
2013-7-11,83,69,55,59,54,46,94,62,27,30.13,30.10,30.04,10,10,2,9,1,,0.00,0,,97
2013-7-12,85,70,56,59,55,51,94,60,32,30.17,30.12,30.08,10,10,5,12,3,17,0.00,0,,165
2013-7-13,86,73,60,62,58,55,88,62,35,30.18,30.14,30.09,10,10,10,12,4,,0.00,0,,164
2013-7-14,90,74,57,68,61,55,94,67,36,30.24,30.21,30.18,10,10,5,12,2,10,0.00,1,,160
2013-7-15,93,78,64,71,67,63,93,68,39,30.30,30.27,30.23,10,8,1,10,2,,0.00,1,,143
2013-7-16,94,82,70,77,72,68,94,77,46,30.29,30.25,30.21,10,8,2,8,2,,0.00,1,,197
2013-7-17,95,84,73,73,69,65,92,62,37,30.28,30.22,30.15,10,10,7,10,3,16,0.00,1,,264
2013-7-18,96,84,71,72,68,64,91,59,34,30.16,30.01,29.85,10,10,7,18,5,26,0.00,1,,229
2013-7-19,95,83,71,70,63,55,71,52,26,29.85,29.77,29.73,10,10,10,20,10,31,0.00,1,,258
2013-7-20,81,72,62,61,58,52,87,63,43,30.01,29.91,29.84,10,10,10,9,4,,0.00,3,,59
2013-7-21,74,66,58,64,56,48,93,72,42,30.02,29.98,29.92,10,10,4,10,4,,0.02,5,Rain,91
2013-7-22,88,73,58,71,64,57,94,74,41,29.92,29.78,29.65,10,8,0,17,3,23,0.00,4,Fog,195
2013-7-23,76,66,56,66,51,45,81,57,34,30.03,29.89,29.72,10,10,10,16,7,22,0.00,3,,343
2013-7-24,77,63,49,54,48,42,92,61,29,30.11,30.06,30.02,10,10,10,8,1,,0.00,2,,195
2013-7-25,83,68,53,66,58,51,92,70,40,30.05,30.01,29.93,10,10,7,17,4,26,0.01,3,Rain,201
2013-7-26,78,67,55,66,59,48,93,77,35,29.96,29.90,29.83,10,10,1,13,5,33,0.26,6,Rain,237
2013-7-27,63,56,49,50,46,42,88,70,52,29.96,29.91,29.85,10,10,10,17,6,21,0.04,7,,290
2013-7-28,69,61,53,54,50,46,88,72,50,30.01,29.90,29.84,10,10,10,17,8,24,0.00,8,,292
2013-7-29,78,67,56,58,53,48,93,67,41,30.18,30.12,30.01,10,10,10,9,4,,0.00,4,,269
2013-7-30,79,66,53,61,57,52,94,74,43,30.20,30.14,30.09,10,8,1,8,2,,0.00,5,,175
2013-7-31,82,73,64,65,62,56,93,77,41,30.09,30.01,29.95,10,10,5,18,3,26,0.06,4,Rain,265